臺北飛航情報區 - 海峽席

METAR RCTP 161600Z 04016KT 9999 FEW010 BKN016 17/14 Q1021 NOSIG RMK A3017(E)=

站台狀態:Online
最後更新:2018-12-17 00:00:01